createdAt,value
2019-04-20T00:02:48.509Z,6.04
2019-04-20T00:07:55.416Z,5.89
2019-04-20T00:13:14.984Z,6.66
2019-04-20T00:18:11.484Z,5.89
2019-04-20T00:23:22.641Z,6.04
2019-04-20T00:28:39.891Z,5.91
2019-04-20T00:38:42.562Z,5.74
2019-04-20T00:43:47.093Z,6.34
2019-04-20T00:48:59.386Z,5.95
2019-04-20T00:54:00.878Z,5.72
2019-04-20T00:59:20.215Z,5.87
2019-04-20T01:04:34.281Z,6.02
2019-04-20T01:09:22.355Z,5.95
2019-04-20T01:14:37.800Z,6.57
2019-04-20T01:19:37.240Z,6.44
2019-04-20T01:24:46.969Z,5.84
2019-04-20T01:30:03.372Z,5.78
2019-04-20T01:35:09.964Z,6.09
2019-04-20T01:40:08.245Z,5.83
2019-04-20T01:45:21.476Z,6.51
2019-04-20T01:50:26.127Z,5.83
2019-04-20T01:55:42.515Z,6.24
2019-04-20T02:00:40.151Z,5.85
2019-04-20T02:05:50.357Z,5.91
2019-04-20T02:10:55.553Z,5.53
2019-04-20T02:16:04.890Z,5.82
2019-04-20T02:21:24.770Z,5.61
2019-04-20T02:26:14.190Z,5.44
2019-04-20T02:37:07.701Z,5.42
2019-04-20T02:42:16.076Z,6.09
2019-04-20T02:47:08.143Z,5.96
2019-04-20T02:57:33.537Z,5.49
2019-04-20T03:02:22.659Z,5.30
2019-04-20T03:07:28.031Z,5.78
2019-04-20T03:12:33.179Z,5.33
2019-04-20T03:17:50.785Z,5.75
2019-04-20T03:23:06.006Z,5.61
2019-04-20T03:28:07.016Z,5.83
2019-04-20T03:33:23.513Z,5.73
2019-04-20T03:38:15.646Z,5.26
2019-04-20T03:43:05.503Z,5.45
2019-04-20T03:48:32.240Z,5.51
2019-04-20T03:53:41.073Z,5.48
2019-04-20T03:58:44.306Z,5.37
2019-04-20T04:03:59.288Z,5.49
2019-04-20T04:13:48.621Z,5.42
2019-04-20T04:19:04.564Z,5.04
2019-04-20T04:24:17.128Z,5.51
2019-04-20T04:29:34.625Z,5.73
2019-04-20T04:34:40.571Z,5.05
2019-04-20T04:39:51.755Z,5.18
2019-04-20T04:44:43.307Z,5.49
2019-04-20T04:49:43.012Z,5.61
2019-04-20T04:54:56.637Z,5.67
2019-04-20T04:59:55.720Z,5.68
2019-04-20T05:05:29.384Z,5.72
2019-04-20T05:10:11.884Z,5.45
2019-04-20T05:15:34.838Z,5.73
2019-04-20T05:20:46.969Z,5.62
2019-04-20T05:25:57.143Z,5.76
2019-04-20T05:30:45.550Z,6.00
2019-04-20T05:36:06.887Z,5.81
2019-04-20T05:41:11.488Z,5.41
2019-04-20T05:46:29.157Z,5.59
2019-04-20T05:56:43.879Z,5.35
2019-04-20T06:06:55.424Z,5.34
2019-04-20T06:17:02.844Z,5.24
2019-04-20T06:22:15.599Z,5.31
2019-04-20T06:27:29.300Z,5.12
2019-04-20T06:32:33.991Z,4.84
2019-04-20T06:37:45.849Z,4.71
2019-04-20T06:42:50.361Z,5.12
2019-04-20T06:47:57.155Z,4.48
2019-04-20T06:53:01.515Z,4.94
2019-04-20T06:58:12.632Z,4.51
2019-04-20T07:03:30.996Z,4.55
2019-04-20T07:08:40.645Z,4.64
2019-04-20T07:13:22.070Z,4.50
2019-04-20T07:18:42.578Z,4.65
2019-04-20T07:23:40.721Z,4.42
2019-04-20T07:28:58.869Z,4.79
2019-04-20T07:34:05.619Z,4.50
2019-04-20T07:44:18.313Z,4.63
2019-04-20T07:49:24.674Z,4.39
2019-04-20T07:54:38.220Z,4.13
2019-04-20T07:59:27.788Z,4.06
2019-04-20T08:04:44.975Z,4.38
2019-04-20T08:09:37.926Z,4.12
2019-04-20T08:15:04.910Z,4.20
2019-04-20T08:20:11.687Z,5.01
2019-04-20T08:25:01.707Z,4.90
2019-04-20T08:30:12.429Z,5.09
2019-04-20T08:35:22.887Z,5.33
2019-04-20T08:40:34.211Z,4.98
2019-04-20T08:45:45.810Z,4.86
2019-04-20T08:50:45.295Z,4.63
2019-04-20T08:55:45.339Z,4.84
2019-04-20T09:00:48.530Z,4.71
2019-04-20T09:05:57.008Z,4.44
2019-04-20T09:16:02.645Z,5.09
2019-04-20T09:21:22.152Z,4.66
2019-04-20T09:26:37.518Z,4.74
2019-04-20T09:31:39.520Z,4.99
2019-04-20T09:36:46.018Z,5.41
2019-04-20T09:41:58.794Z,5.18
2019-04-20T09:46:51.484Z,5.61
2019-04-20T09:52:02.318Z,5.71
2019-04-20T09:57:17.472Z,6.12
2019-04-20T10:02:16.941Z,5.57
2019-04-20T10:07:19.993Z,5.88
2019-04-20T10:12:24.249Z,6.22
2019-04-20T10:17:33.436Z,5.64
2019-04-20T10:22:38.790Z,6.23
2019-04-20T10:27:47.476Z,6.10
2019-04-20T10:32:55.620Z,6.29
2019-04-20T10:38:01.576Z,6.33
2019-04-20T10:43:10.212Z,6.37
2019-04-20T10:48:17.321Z,7.02
2019-04-20T10:53:23.800Z,7.15
2019-04-20T10:58:31.691Z,6.00
2019-04-20T11:03:38.541Z,5.89
2019-04-20T11:08:46.660Z,7.17
2019-04-20T11:13:53.596Z,6.93
2019-04-20T11:19:01.294Z,6.36
2019-04-20T11:24:10.020Z,6.78
2019-04-20T11:29:16.434Z,6.91
2019-04-20T11:34:28.473Z,6.55
2019-04-20T11:39:34.839Z,6.66
2019-04-20T11:44:40.698Z,6.64
2019-04-20T11:49:49.335Z,6.20
2019-04-20T11:54:55.645Z,6.62
2019-04-20T12:00:03.719Z,6.58
2019-04-20T12:05:19.790Z,6.53
2019-04-20T12:10:22.213Z,6.68
2019-04-20T12:15:26.570Z,6.06
2019-04-20T12:20:32.871Z,6.58
2019-04-20T12:25:41.419Z,6.63
2019-04-20T12:30:48.256Z,6.68
2019-04-20T12:35:56.332Z,7.21
2019-04-20T12:41:04.894Z,7.04
2019-04-20T12:46:14.823Z,8.06
2019-04-20T12:51:19.643Z,6.69
2019-04-20T12:56:26.494Z,6.12
2019-04-20T13:01:33.336Z,6.46
2019-04-20T13:06:41.049Z,6.39
2019-04-20T13:11:53.019Z,6.51
2019-04-20T13:16:56.866Z,6.85
2019-04-20T13:22:03.464Z,6.71
2019-04-20T13:27:11.314Z,6.33
2019-04-20T13:32:20.183Z,5.97
2019-04-20T13:37:26.441Z,5.80
2019-04-20T13:42:35.191Z,6.53
2019-04-20T13:47:43.144Z,5.79
2019-04-20T13:52:49.777Z,5.83
2019-04-20T13:57:57.726Z,6.27
2019-04-20T14:03:04.893Z,5.56
2019-04-20T14:08:11.993Z,5.74
2019-04-20T14:13:22.078Z,5.80
2019-04-20T14:18:27.049Z,5.08
2019-04-20T14:23:34.933Z,5.38
2019-04-20T14:28:42.968Z,5.16
2019-04-20T14:33:50.872Z,5.44
2019-04-20T14:39:00.441Z,5.54
2019-04-20T14:44:07.817Z,5.04
2019-04-20T14:49:14.737Z,5.75
2019-04-20T14:54:21.378Z,6.07
2019-04-20T14:59:29.454Z,6.25
2019-04-20T15:04:36.929Z,5.66
2019-04-20T15:09:42.985Z,6.02
2019-04-20T15:14:50.709Z,5.92
2019-04-20T15:19:59.236Z,6.16
2019-04-20T15:25:05.800Z,5.86
2019-04-20T15:30:14.134Z,6.55
2019-04-20T15:35:21.530Z,6.41
2019-04-20T15:40:29.019Z,5.73
2019-04-20T15:45:36.972Z,6.36
2019-04-20T15:50:43.762Z,6.11
2019-04-20T15:55:50.876Z,6.41
2019-04-20T16:00:58.619Z,6.16
2019-04-20T16:06:07.489Z,5.83
2019-04-20T16:11:13.531Z,7.02
2019-04-20T16:16:23.635Z,7.17
2019-04-20T16:21:32.037Z,6.10
2019-04-20T16:26:37.928Z,6.39
2019-04-20T16:31:48.106Z,6.96
2019-04-20T16:36:56.051Z,7.14
2019-04-20T16:42:00.466Z,7.04
2019-04-20T16:47:08.110Z,7.74
2019-04-20T16:52:16.778Z,8.11
2019-04-20T16:57:23.686Z,8.66
2019-04-20T17:02:30.480Z,7.97
2019-04-20T17:07:39.250Z,8.20
2019-04-20T17:12:46.061Z,7.85
2019-04-20T17:17:53.238Z,7.53
2019-04-20T17:23:00.664Z,8.40
2019-04-20T17:28:08.764Z,8.96
2019-04-20T17:33:16.031Z,9.40
2019-04-20T17:38:22.556Z,9.22
2019-04-20T17:43:37.184Z,9.52
2019-04-20T17:48:46.333Z,9.97
2019-04-20T17:53:50.860Z,9.78
2019-04-20T17:58:52.241Z,9.54
2019-04-20T18:04:27.645Z,8.92
2019-04-20T18:09:34.529Z,9.57
2019-04-20T18:14:31.528Z,13.75
2019-04-20T18:19:24.760Z,16.78
2019-04-20T18:24:50.999Z,18.64
2019-04-20T18:29:55.774Z,17.16
2019-04-20T18:34:50.646Z,14.76
2019-04-20T18:39:57.381Z,16.66
2019-04-20T18:45:15.967Z,16.43
2019-04-20T18:50:16.962Z,11.88
2019-04-20T18:55:23.264Z,11.14
2019-04-20T19:00:27.045Z,9.79
2019-04-20T19:05:29.559Z,10.57
2019-04-20T19:10:38.603Z,11.80
2019-04-20T19:15:51.170Z,12.30
2019-04-20T19:20:50.950Z,13.05
2019-04-20T19:26:05.480Z,13.59
2019-04-20T19:31:21.561Z,12.64
2019-04-20T19:36:25.833Z,12.41
2019-04-20T19:41:34.061Z,12.35
2019-04-20T19:46:47.783Z,12.18
2019-04-20T19:52:03.027Z,12.55
2019-04-20T19:56:58.280Z,12.54
2019-04-20T20:01:53.829Z,14.99
2019-04-20T20:07:06.776Z,14.28
2019-04-20T20:12:12.548Z,13.27
2019-04-20T20:17:40.273Z,13.29
2019-04-20T20:22:32.229Z,14.38
2019-04-20T20:27:40.233Z,13.25
2019-04-20T20:32:56.473Z,12.28
2019-04-20T20:37:50.199Z,14.80
2019-04-20T20:43:01.478Z,17.68
2019-04-20T20:48:16.909Z,20.67
2019-04-20T20:53:16.273Z,21.44
2019-04-20T20:58:19.208Z,22.29
2019-04-20T21:03:30.165Z,22.64
2019-04-20T21:08:31.479Z,21.18
2019-04-20T21:13:40.176Z,18.40
2019-04-20T21:19:03.244Z,18.72
2019-04-20T21:24:00.106Z,16.70
2019-04-20T21:28:59.664Z,16.72
2019-04-20T21:34:13.122Z,16.43
2019-04-20T21:39:21.948Z,17.19
2019-04-20T21:44:26.786Z,17.16
2019-04-20T21:49:43.853Z,18.44
2019-04-20T21:54:38.129Z,18.25
2019-04-20T21:59:47.030Z,18.75
2019-04-20T22:04:51.510Z,19.11
2019-04-20T22:10:00.328Z,20.78
2019-04-20T22:15:17.018Z,23.55
2019-04-20T22:20:23.237Z,22.41
2019-04-20T22:25:37.930Z,23.49
2019-04-20T22:30:30.249Z,22.17
2019-04-20T22:40:44.715Z,22.63
2019-04-20T22:45:53.917Z,22.35
2019-04-20T22:51:17.915Z,24.57
2019-04-20T22:56:24.324Z,24.92
2019-04-20T23:01:27.023Z,24.98
2019-04-20T23:06:24.336Z,26.56
2019-04-20T23:11:30.478Z,25.44
2019-04-20T23:16:43.301Z,26.75
2019-04-20T23:21:48.628Z,27.55
2019-04-20T23:26:50.844Z,26.48
2019-04-20T23:32:02.985Z,26.52
2019-04-20T23:37:09.995Z,26.02
2019-04-20T23:42:12.997Z,27.13
2019-04-20T23:47:21.712Z,27.45
2019-04-20T23:52:42.413Z,27.37
2019-04-20T23:57:33.751Z,26.65
